Time;durP1;ratioP1;P1;durP2;ratioP2;P2;SDS_P1;SDS_P2;PMS_P1;PMS_P2;Temp;Humidity;BMP_temperature;BMP_pressure;BME280_temperature;BME280_humidity;BME280_pressure;Samples;Min_cycle;Max_cycle;Signal;HPM_P1;HPM_P2
2023/03/24 00:01:19;;;;;;;9.88;5.53;;;11.00;99.90;;;;;;4975009;28;20108;-68
2023/03/24 00:03:47;;;;;;;10.40;5.20;;;11.00;99.90;;;;;;4992230;28;20061;-68
2023/03/24 00:06:14;;;;;;;10.82;6.35;;;11.00;99.90;;;;;;4975816;28;20078;-68
2023/03/24 00:08:42;;;;;;;10.63;5.68;;;11.00;99.90;;;;;;4991614;28;20410;-68
2023/03/24 00:11:11;;;;;;;11.27;5.20;;;11.00;99.90;;;;;;4992449;28;20133;-67
2023/03/24 00:13:40;;;;;;;14.32;5.28;;;11.00;99.90;;;;;;4992420;28;20147;-68
2023/03/24 00:16:09;;;;;;;14.27;5.88;;;10.90;99.90;;;;;;4974435;28;20050;-69
2023/03/24 00:18:38;;;;;;;12.70;5.10;;;10.90;99.90;;;;;;4992245;28;20050;-68
2023/03/24 00:21:06;;;;;;;11.95;5.15;;;10.90;99.90;;;;;;4975362;28;20461;-68
2023/03/24 00:23:34;;;;;;;8.93;5.63;;;10.90;99.90;;;;;;4974921;28;20051;-68
2023/03/24 00:26:04;;;;;;;9.13;5.07;;;11.00;99.90;;;;;;4992720;28;20042;-69
2023/03/24 00:28:32;;;;;;;7.43;4.78;;;11.00;99.90;;;;;;4990430;28;20104;-68
2023/03/24 00:31:01;;;;;;;9.48;5.00;;;11.00;99.90;;;;;;4974626;28;20413;-69
2023/03/24 00:33:30;;;;;;;9.68;5.40;;;11.00;99.90;;;;;;4975322;28;20054;-69
2023/03/24 00:35:57;;;;;;;12.50;5.45;;;11.00;99.90;;;;;;5002144;28;20056;-69
2023/03/24 00:38:25;;;;;;;6.93;4.60;;;11.00;99.90;;;;;;4993035;28;20112;-68
2023/03/24 00:40:52;;;;;;;11.02;5.65;;;11.00;99.90;;;;;;5011299;28;20057;-69
2023/03/24 00:43:20;;;;;;;8.20;4.95;;;10.90;99.90;;;;;;4990771;28;20050;-69
2023/03/24 00:45:47;;;;;;;11.55;4.90;;;11.00;99.90;;;;;;4975152;28;20050;-68
2023/03/24 00:48:17;;;;;;;11.85;4.43;;;11.00;99.90;;;;;;4991961;28;20102;-69
2023/03/24 00:50:45;;;;;;;8.10;5.10;;;11.00;99.90;;;;;;4974478;28;20046;-68
2023/03/24 00:53:14;;;;;;;9.88;5.32;;;10.90;99.90;;;;;;4991911;28;20296;-68
2023/03/24 00:55:41;;;;;;;7.88;4.35;;;10.90;99.90;;;;;;4991402;28;20053;-68
2023/03/24 00:58:08;;;;;;;11.18;4.63;;;10.90;99.90;;;;;;4974079;28;20120;-68
2023/03/24 01:00:40;;;;;;;9.93;4.50;;;11.00;99.90;;;;;;4992956;28;20058;-68
2023/03/24 01:03:08;;;;;;;7.35;3.80;;;11.00;99.90;;;;;;4978862;28;20046;-68
2023/03/24 01:05:37;;;;;;;7.13;5.05;;;10.90;99.90;;;;;;4994641;28;20125;-67
2023/03/24 01:08:05;;;;;;;8.25;5.03;;;10.90;99.90;;;;;;4978325;28;20054;-68
2023/03/24 01:10:34;;;;;;;9.88;4.60;;;10.90;99.90;;;;;;4978336;28;20100;-68
2023/03/24 01:13:02;;;;;;;8.75;4.55;;;10.90;99.90;;;;;;4994969;28;20046;-68
2023/03/24 01:15:32;;;;;;;8.38;4.75;;;10.90;99.90;;;;;;4995520;28;20100;-68
2023/03/24 01:18:00;;;;;;;13.00;5.13;;;10.90;99.90;;;;;;4978072;28;20493;-68
2023/03/24 01:20:31;;;;;;;12.65;5.72;;;10.90;99.90;;;;;;4977771;28;20082;-68
2023/03/24 01:23:00;;;;;;;10.50;4.60;;;10.90;99.90;;;;;;4995468;28;20053;-68
2023/03/24 01:25:28;;;;;;;11.88;4.35;;;10.90;99.90;;;;;;4977682;28;20054;-67
2023/03/24 01:27:55;;;;;;;5.88;3.70;;;10.90;99.90;;;;;;4978370;28;20133;-68
2023/03/24 01:30:24;;;;;;;9.30;4.10;;;10.90;99.90;;;;;;4995117;28;20109;-68
2023/03/24 01:32:52;;;;;;;10.27;4.43;;;10.90;99.90;;;;;;4994673;28;20050;-68
2023/03/24 01:35:19;;;;;;;7.75;4.13;;;10.90;99.90;;;;;;4978382;28;20054;-69
2023/03/24 01:37:46;;;;;;;9.43;4.28;;;10.90;99.90;;;;;;4977281;28;20101;-68
2023/03/24 01:40:18;;;;;;;11.82;4.38;;;10.90;99.90;;;;;;4977189;28;20097;-69
2023/03/24 01:42:45;;;;;;;8.75;4.18;;;11.00;99.90;;;;;;4978357;28;20453;-68
2023/03/24 01:45:41;;;;;;;7.22;4.45;;;11.00;99.90;;;;;;4977918;28;20058;-69
2023/03/24 01:48:11;;;;;;;8.38;3.75;;;11.00;99.90;;;;;;4975294;28;20101;-69
2023/03/24 01:50:40;;;;;;;10.07;4.15;;;10.90;99.90;;;;;;4994573;28;20093;-69
2023/03/24 01:53:08;;;;;;;8.52;4.30;;;10.90;99.90;;;;;;4994936;28;20042;-70
2023/03/24 01:55:38;;;;;;;9.85;4.63;;;10.90;99.90;;;;;;4993788;28;20108;-70
2023/03/24 01:58:06;;;;;;;10.55;4.35;;;10.90;99.90;;;;;;5010716;28;20427;-69
2023/03/24 02:00:33;;;;;;;6.10;3.80;;;10.90;99.90;;;;;;4995869;28;20054;-69
2023/03/24 02:03:06;;;;;;;7.38;3.70;;;10.90;99.90;;;;;;5014222;28;20057;-69
2023/03/24 02:05:36;;;;;;;6.65;3.92;;;10.90;99.90;;;;;;4977962;28;20094;-69
2023/03/24 02:08:10;;;;;;;12.57;4.18;;;10.90;99.90;;;;;;4977195;28;20054;-69
2023/03/24 02:10:39;;;;;;;7.40;4.50;;;10.90;99.90;;;;;;4994358;28;20469;-70
2023/03/24 02:13:06;;;;;;;9.30;5.03;;;10.90;99.90;;;;;;4977113;28;20074;-70
2023/03/24 02:15:40;;;;;;;6.72;4.20;;;11.00;99.90;;;;;;4976950;28;20383;-70
2023/03/24 02:18:17;;;;;;;7.22;4.50;;;10.90;99.90;;;;;;4993936;28;20050;-69
2023/03/24 02:21:16;;;;;;;5.93;3.88;;;10.90;99.90;;;;;;4977597;28;20081;-69
2023/03/24 02:24:27;;;;;;;5.85;3.88;;;10.90;99.90;;;;;;5007809;28;20041;-70
2023/03/24 02:27:02;;;;;;;5.60;3.95;;;11.00;99.90;;;;;;4995741;28;20058;-69
2023/03/24 02:30:03;;;;;;;4.88;3.72;;;11.00;99.90;;;;;;4994953;28;20058;-70
2023/03/24 02:32:56;;;;;;;8.20;4.03;;;11.00;99.90;;;;;;4994204;28;20134;-69
2023/03/24 02:36:06;;;;;;;8.68;4.15;;;11.00;99.90;;;;;;4994243;28;20054;-70
2023/03/24 02:39:06;;;;;;;7.80;4.15;;;11.00;99.90;;;;;;4993975;28;20050;-69
2023/03/24 02:41:39;;;;;;;6.32;4.10;;;11.00;99.90;;;;;;4977390;28;20191;-69
2023/03/24 02:44:11;;;;;;;7.03;4.38;;;11.10;99.90;;;;;;4976371;28;20100;-69
2023/03/24 02:46:45;;;;;;;7.53;4.40;;;11.00;99.90;;;;;;4976734;28;20046;-68
2023/03/24 02:49:21;;;;;;;6.32;4.05;;;11.00;99.90;;;;;;4993479;28;20109;-68
2023/03/24 02:51:52;;;;;;;6.55;3.72;;;11.00;99.90;;;;;;4976244;28;20059;-68
2023/03/24 02:54:22;;;;;;;6.82;4.10;;;11.10;99.90;;;;;;4976840;28;20057;-67
2023/03/24 02:56:56;;;;;;;7.35;4.93;;;11.10;99.90;;;;;;4993972;28;20043;-69
2023/03/24 02:59:31;;;;;;;6.95;4.43;;;11.10;99.90;;;;;;4976481;28;20109;-68
2023/03/24 03:02:02;;;;;;;6.13;3.60;;;11.10;99.90;;;;;;4994330;28;20054;-69
2023/03/24 03:04:32;;;;;;;5.95;4.18;;;11.10;99.90;;;;;;4993680;28;20050;-69
2023/03/24 03:07:05;;;;;;;7.18;4.32;;;11.10;99.90;;;;;;4992828;28;20449;-69
2023/03/24 03:09:33;;;;;;;7.22;3.80;;;11.10;99.90;;;;;;4992508;28;20501;-69
2023/03/24 03:12:03;;;;;;;6.47;3.97;;;11.20;99.90;;;;;;4976313;28;20112;-69
2023/03/24 03:14:32;;;;;;;;;;;11.20;99.90;;;;;;4977377;28;20058;-69
2023/03/24 03:17:04;;;;;;;9.95;4.47;;;11.20;99.90;;;;;;4994053;28;20340;-69
2023/03/24 03:19:35;;;;;;;6.80;4.22;;;11.20;99.90;;;;;;4976127;28;20054;-69
2023/03/24 03:22:07;;;;;;;6.25;4.18;;;11.20;99.90;;;;;;4994383;28;20050;-69
2023/03/24 03:24:38;;;;;;;5.63;3.95;;;11.20;99.90;;;;;;4993422;28;20046;-69
2023/03/24 03:27:13;;;;;;;6.93;3.58;;;11.20;99.90;;;;;;4993573;28;20461;-69
2023/03/24 03:29:44;;;;;;;8.93;4.10;;;11.20;99.90;;;;;;4993879;28;20104;-69
2023/03/24 03:32:18;;;;;;;5.07;3.05;;;11.20;99.90;;;;;;4993313;28;20053;-69
2023/03/24 03:34:50;;;;;;;5.65;3.08;;;11.20;99.90;;;;;;4976646;28;20054;-69
2023/03/24 03:37:25;;;;;;;4.38;2.95;;;11.00;99.90;;;;;;4976318;28;20046;-69
2023/03/24 03:39:56;;;;;;;6.78;2.92;;;10.90;99.90;;;;;;4990903;28;20046;-69
2023/03/24 03:42:24;;;;;;;;;;;10.80;99.90;;;;;;4993997;28;20054;-69
2023/03/24 03:44:51;;;;;;;5.00;3.08;;;10.70;99.90;;;;;;4974244;28;19922;-69
2023/03/24 03:47:20;;;;;;;5.38;2.65;;;10.50;99.90;;;;;;4975804;28;20057;-70
2023/03/24 03:49:47;;;;;;;5.63;3.35;;;10.50;99.90;;;;;;4975994;28;20084;-70
2023/03/24 03:52:14;;;;;;;7.53;3.22;;;10.50;99.90;;;;;;4993649;28;20042;-71
2023/03/24 03:54:43;;;;;;;9.27;2.58;;;10.40;99.90;;;;;;4974627;28;20105;-69
2023/03/24 03:57:12;;;;;;;6.90;2.88;;;10.30;99.90;;;;;;4989559;28;20100;-70
2023/03/24 03:59:40;;;;;;;6.70;2.60;;;10.20;99.90;;;;;;4975181;28;20100;-70
2023/03/24 04:02:20;;;;;;;8.02;2.78;;;10.20;99.90;;;;;;4974315;28;20093;-71
2023/03/24 04:05:02;;;;;;;4.50;2.30;;;10.20;99.90;;;;;;4974581;28;20171;-72
2023/03/24 04:07:37;;;;;;;5.20;2.30;;;10.10;99.90;;;;;;4974746;28;20054;-69
2023/03/24 04:10:14;;;;;;;4.13;1.58;;;10.10;99.90;;;;;;4975327;28;20486;-70
2023/03/24 04:13:12;;;;;;;5.38;2.42;;;10.00;99.90;;;;;;4975098;28;20186;-70
2023/03/24 04:15:46;;;;;;;9.40;1.92;;;9.90;99.90;;;;;;4980694;28;20050;-71
2023/03/24 04:18:32;;;;;;;5.40;1.67;;;9.90;99.90;;;;;;4974879;28;20050;-70
2023/03/24 04:21:11;;;;;;;8.82;2.08;;;9.80;99.90;;;;;;4991003;28;20062;-70
2023/03/24 04:23:48;;;;;;;9.57;2.42;;;9.70;99.90;;;;;;4989809;28;20046;-70
2023/03/24 04:26:25;;;;;;;3.83;1.58;;;9.70;99.90;;;;;;4974956;28;20100;-71
2023/03/24 04:29:02;;;;;;;8.43;2.40;;;9.50;99.90;;;;;;4973104;28;20128;-69
2023/03/24 04:31:36;;;;;;;8.02;2.15;;;9.50;99.90;;;;;;4974918;28;20054;-70
2023/03/24 04:34:11;;;;;;;6.53;1.95;;;9.40;99.90;;;;;;4992129;28;20050;-71
2023/03/24 04:36:44;;;;;;;5.28;2.42;;;9.30;99.90;;;;;;4978014;28;20494;-70
2023/03/24 04:39:15;;;;;;;9.23;3.05;;;9.30;99.90;;;;;;4995881;28;20050;-69
2023/03/24 04:41:42;;;;;;;8.52;2.33;;;9.20;99.90;;;;;;4978952;28;20124;-69
2023/03/24 04:44:11;;;;;;;5.95;1.95;;;9.60;99.90;;;;;;4977843;28;20056;-70
2023/03/24 04:46:39;;;;;;;4.97;1.80;;;9.10;99.90;;;;;;4995761;28;20960;-70
2023/03/24 04:49:06;;;;;;;11.18;2.35;;;9.00;99.90;;;;;;4995343;28;20082;-70
2023/03/24 04:51:34;;;;;;;7.43;2.20;;;9.00;99.90;;;;;;4974982;28;20490;-70
2023/03/24 04:54:01;;;;;;;9.07;3.00;;;8.90;99.90;;;;;;4993000;28;20053;-70
2023/03/24 04:56:38;;;;;;;7.65;2.63;;;8.90;99.90;;;;;;4977953;28;20081;-68
2023/03/24 04:59:07;;;;;;;10.90;2.60;;;8.80;99.90;;;;;;4978899;28;20280;-70
2023/03/24 05:01:36;;;;;;;8.50;2.08;;;8.70;99.90;;;;;;4995373;28;20516;-71
2023/03/24 05:04:05;;;;;;;8.48;2.45;;;8.70;99.90;;;;;;4978176;28;20158;-69
2023/03/24 05:06:32;;;;;;;12.05;3.20;;;8.70;99.90;;;;;;4993391;28;20054;-69
2023/03/24 05:08:59;;;;;;;12.77;2.45;;;8.60;99.90;;;;;;4978952;28;20062;-69
2023/03/24 05:11:27;;;;;;;9.98;2.60;;;8.60;99.90;;;;;;4996832;28;20062;-69
2023/03/24 05:13:55;;;;;;;9.25;2.40;;;8.60;99.90;;;;;;4978984;28;20129;-69
2023/03/24 05:16:22;;;;;;;7.47;2.58;;;8.60;99.90;;;;;;4978368;28;20050;-69
2023/03/24 05:18:49;;;;;;;7.82;2.58;;;8.60;99.90;;;;;;4994724;28;20046;-69
2023/03/24 05:21:19;;;;;;;13.25;2.83;;;8.60;99.90;;;;;;4978479;28;20069;-68
2023/03/24 05:23:46;;;;;;;7.03;2.60;;;8.60;99.90;;;;;;4995154;28;20497;-70
2023/03/24 05:26:13;;;;;;;13.25;3.42;;;8.60;99.90;;;;;;4977453;28;20060;-71
2023/03/24 05:28:40;;;;;;;13.82;2.63;;;8.70;99.90;;;;;;4977602;28;20108;-70
2023/03/24 05:31:07;;;;;;;11.18;3.15;;;8.70;99.90;;;;;;4990847;28;20499;-70
2023/03/24 05:33:34;;;;;;;13.95;3.28;;;8.70;99.90;;;;;;4974355;28;20096;-70
2023/03/24 05:36:01;;;;;;;10.35;3.17;;;8.70;99.90;;;;;;4978441;28;20054;-70
2023/03/24 05:38:29;;;;;;;16.20;3.70;;;8.70;99.90;;;;;;4993720;28;20042;-70
2023/03/24 05:40:57;;;;;;;10.48;3.95;;;8.80;99.90;;;;;;4978187;28;20113;-70
2023/03/24 05:43:25;;;;;;;9.52;3.17;;;8.80;99.90;;;;;;4977505;28;20062;-70
2023/03/24 05:45:52;;;;;;;18.02;4.00;;;8.90;99.90;;;;;;4978325;28;20042;-69
2023/03/24 05:48:19;;;;;;;12.27;3.50;;;8.90;99.90;;;;;;4978505;28;20038;-69
2023/03/24 05:50:46;;;;;;;11.60;4.38;;;8.90;99.90;;;;;;4977861;28;20121;-70
2023/03/24 05:53:12;;;;;;;10.20;2.95;;;8.90;99.90;;;;;;4976960;28;20050;-70
2023/03/24 05:55:41;;;;;;;10.60;3.00;;;8.90;99.90;;;;;;4993403;28;20046;-70
2023/03/24 05:58:08;;;;;;;12.75;3.75;;;8.90;99.90;;;;;;4974191;28;20102;-71
2023/03/24 06:00:34;;;;;;;9.05;3.00;;;8.90;99.90;;;;;;4996341;28;20493;-70
2023/03/24 06:03:01;;;;;;;11.70;3.70;;;8.90;99.90;;;;;;4975487;28;20097;-70
2023/03/24 06:05:28;;;;;;;10.90;3.50;;;9.00;99.90;;;;;;4978769;28;20058;-70
2023/03/24 06:07:57;;;;;;;13.27;3.78;;;9.00;99.90;;;;;;4974979;28;20050;-69
2023/03/24 06:10:25;;;;;;;12.07;3.10;;;9.00;99.90;;;;;;4977416;28;20064;-70
2023/03/24 06:12:53;;;;;;;15.25;3.88;;;9.00;99.90;;;;;;4983431;28;20133;-70
2023/03/24 06:15:21;;;;;;;10.98;3.40;;;8.90;99.90;;;;;;4995720;28;20046;-70
2023/03/24 06:17:49;;;;;;;11.10;3.35;;;8.90;99.90;;;;;;4992605;28;20077;-70
2023/03/24 06:20:17;;;;;;;15.55;3.45;;;8.90;99.90;;;;;;4993069;28;20731;-70
2023/03/24 06:22:46;;;;;;;12.07;3.80;;;8.90;99.90;;;;;;5000394;28;20046;-69
2023/03/24 06:25:15;;;;;;;11.63;2.85;;;9.00;99.90;;;;;;4975695;28;20061;-70
2023/03/24 06:27:45;;;;;;;10.40;2.60;;;9.00;99.90;;;;;;4983208;28;20042;-70
2023/03/24 06:30:15;;;;;;;16.58;3.15;;;9.00;99.90;;;;;;4975304;28;20509;-70
2023/03/24 06:32:45;;;;;;;11.15;3.17;;;9.00;99.90;;;;;;4983336;28;20054;-69
2023/03/24 06:35:12;;;;;;;9.15;3.60;;;9.00;99.90;;;;;;5003176;28;20138;-70
2023/03/24 06:37:39;;;;;;;10.45;3.13;;;9.00;99.90;;;;;;4975938;28;20050;-71
2023/03/24 06:40:13;;;;;;;12.77;3.00;;;9.00;99.90;;;;;;4990550;28;20046;-71
2023/03/24 06:42:40;;;;;;;12.10;2.85;;;9.00;99.90;;;;;;4992813;28;20093;-70
2023/03/24 06:45:08;;;;;;;15.50;3.55;;;9.00;99.90;;;;;;4990761;28;20296;-68
2023/03/24 06:47:36;;;;;;;8.27;3.33;;;9.00;99.90;;;;;;4975025;28;20162;-70
2023/03/24 06:50:04;;;;;;;9.88;2.80;;;9.10;99.90;;;;;;4976741;28;20057;-70
2023/03/24 06:52:31;;;;;;;13.27;3.50;;;9.10;99.90;;;;;;4995752;28;20061;-69
2023/03/24 06:54:57;;;;;;;9.52;3.13;;;9.10;99.90;;;;;;4995350;28;20062;-70
2023/03/24 06:57:24;;;;;;;14.15;3.15;;;9.10;99.90;;;;;;4973883;28;20104;-70
2023/03/24 06:59:51;;;;;;;12.50;3.78;;;9.10;99.90;;;;;;4973168;28;20538;-69
2023/03/24 07:02:18;;;;;;;14.07;3.28;;;9.10;99.90;;;;;;4972583;28;20050;-69
2023/03/24 07:04:47;;;;;;;10.00;3.03;;;9.30;99.90;;;;;;4974558;28;20402;-69
2023/03/24 07:07:16;;;;;;;12.18;3.67;;;9.20;99.90;;;;;;4976463;28;20051;-69
2023/03/24 07:09:43;;;;;;;12.40;3.42;;;9.20;99.90;;;;;;4991981;28;20149;-69
2023/03/24 07:12:10;;;;;;;14.63;2.85;;;9.20;99.90;;;;;;4974641;28;20077;-68
2023/03/24 07:14:37;;;;;;;15.05;3.42;;;9.20;99.90;;;;;;4995203;28;20129;-69
2023/03/24 07:17:05;;;;;;;13.30;3.45;;;9.30;99.90;;;;;;4990622;28;20198;-69
2023/03/24 07:19:32;;;;;;;13.00;2.72;;;9.30;99.90;;;;;;4992188;28;20049;-70
2023/03/24 07:22:00;;;;;;;15.23;3.47;;;9.30;99.90;;;;;;4993295;28;20065;-70
2023/03/24 07:24:27;;;;;;;13.13;4.13;;;9.30;99.90;;;;;;4992580;28;20065;-70
2023/03/24 07:26:54;;;;;;;13.73;3.42;;;9.30;99.90;;;;;;4976079;28;20050;-70
2023/03/24 07:29:21;;;;;;;17.65;3.20;;;9.40;99.90;;;;;;4992540;28;20516;-70
2023/03/24 07:31:47;;;;;;;14.30;3.70;;;9.40;99.90;;;;;;4992821;28;20050;-70
2023/03/24 07:34:14;;;;;;;18.95;3.65;;;9.50;99.90;;;;;;4993460;28;20053;-70
2023/03/24 07:36:41;;;;;;;11.65;3.30;;;9.50;99.90;;;;;;4994096;28;20100;-69
2023/03/24 07:39:10;;;;;;;15.60;4.55;;;9.50;99.90;;;;;;4993014;28;20045;-69
2023/03/24 07:41:36;;;;;;;12.85;3.53;;;9.50;99.90;;;;;;4994483;28;20457;-70
2023/03/24 07:44:03;;;;;;;13.02;3.33;;;9.50;99.90;;;;;;5010747;28;20054;-69
2023/03/24 07:46:30;;;;;;;13.20;3.20;;;9.50;99.90;;;;;;5010247;28;20050;-69
2023/03/24 07:48:57;;;;;;;18.88;4.97;;;9.50;99.90;;;;;;4998263;28;20054;-70
2023/03/24 07:51:24;;;;;;;14.75;3.65;;;9.50;99.90;;;;;;4989963;28;20045;-69
2023/03/24 07:53:51;;;;;;;14.98;3.75;;;9.60;99.90;;;;;;5009957;28;20050;-70
2023/03/24 07:56:20;;;;;;;18.25;4.35;;;9.60;99.90;;;;;;5010825;28;20058;-70
2023/03/24 07:58:47;;;;;;;21.55;4.57;;;9.60;99.90;;;;;;5011092;28;20054;-70
2023/03/24 08:01:14;;;;;;;18.10;3.75;;;9.70;99.90;;;;;;5009371;28;20050;-70
2023/03/24 08:03:41;;;;;;;25.33;4.38;;;9.80;99.90;;;;;;4978149;28;20086;-70
2023/03/24 08:06:08;;;;;;;14.48;4.43;;;9.80;99.90;;;;;;4993521;28;20058;-70
2023/03/24 08:08:36;;;;;;;19.13;3.80;;;9.80;99.90;;;;;;4991110;28;20041;-69
2023/03/24 08:11:03;;;;;;;13.57;4.00;;;9.80;99.90;;;;;;4979330;28;20049;-69
2023/03/24 08:13:31;;;;;;;18.13;3.28;;;9.80;99.90;;;;;;4993023;28;20123;-69
2023/03/24 08:15:58;;;;;;;23.10;4.18;;;9.90;99.90;;;;;;4973329;28;20058;-69
2023/03/24 08:18:25;;;;;;;16.30;4.00;;;9.90;99.90;;;;;;4975855;28;20047;-68
2023/03/24 08:20:56;;;;;;;20.85;4.65;;;9.90;99.90;;;;;;4991738;28;20054;-70
2023/03/24 08:23:24;;;;;;;17.33;4.22;;;10.10;99.90;;;;;;4973475;28;20062;-69
2023/03/24 08:25:51;;;;;;;17.45;3.50;;;10.20;99.90;;;;;;4974325;28;20446;-71
2023/03/24 08:28:18;;;;;;;16.08;3.35;;;10.50;99.90;;;;;;4988296;28;20049;-69
2023/03/24 08:30:46;;;;;;;16.15;3.72;;;10.50;99.90;;;;;;4976009;28;20454;-70
2023/03/24 08:33:15;;;;;;;16.17;3.90;;;10.80;99.90;;;;;;4989620;28;20474;-69
2023/03/24 08:35:44;;;;;;;15.27;3.22;;;11.10;99.90;;;;;;5004004;28;20456;-69
2023/03/24 08:38:13;;;;;;;18.08;3.42;;;11.70;99.90;;;;;;4991413;28;20587;-70
2023/03/24 08:40:42;;;;;;;13.18;3.45;;;12.00;99.90;;;;;;4991382;28;20104;-69
2023/03/24 08:43:13;;;;;;;18.42;3.60;;;12.50;99.90;;;;;;4974067;28;20572;-71
2023/03/24 08:45:40;;;;;;;17.63;4.55;;;13.30;99.90;;;;;;4991060;28;20046;-69
2023/03/24 08:48:09;;;;;;;15.88;4.25;;;14.20;99.90;;;;;;4991413;28;20390;-70
2023/03/24 08:50:38;;;;;;;17.30;4.43;;;14.50;99.90;;;;;;4991180;28;20050;-70
2023/03/24 08:53:05;;;;;;;13.57;3.97;;;13.70;99.90;;;;;;4993412;28;20092;-69
2023/03/24 08:55:32;;;;;;;18.85;3.80;;;13.70;99.90;;;;;;4991121;28;20047;-70
2023/03/24 08:58:00;;;;;;;15.10;4.28;;;13.60;99.90;;;;;;4971181;28;20747;-70
2023/03/24 09:00:27;;;;;;;15.10;3.97;;;13.70;99.90;;;;;;4987532;28;20686;-69
2023/03/24 09:02:55;;;;;;;17.15;3.85;;;14.40;99.90;;;;;;4988523;28;20054;-70
2023/03/24 09:05:25;;;;;;;16.98;3.97;;;15.00;99.90;;;;;;4970005;28;20046;-70
2023/03/24 09:07:52;;;;;;;14.30;3.93;;;15.70;99.90;;;;;;4970438;28;20050;-68
2023/03/24 09:10:21;;;;;;;12.32;3.28;;;14.70;99.90;;;;;;4969777;28;20294;-68
2023/03/24 09:12:48;;;;;;;15.10;4.15;;;15.00;99.90;;;;;;4992852;28;20128;-69
2023/03/24 09:15:15;;;;;;;13.60;3.53;;;15.40;99.90;;;;;;4987765;28;20050;-70
2023/03/24 09:17:42;;;;;;;14.25;3.80;;;16.10;99.90;;;;;;4991957;28;20042;-68
2023/03/24 09:20:12;;;;;;;13.90;3.17;;;17.00;99.90;;;;;;4975086;28;20062;-69
2023/03/24 09:22:42;;;;;;;10.45;3.47;;;17.20;99.90;;;;;;4985735;28;20045;-68
2023/03/24 09:25:10;;;;;;;14.88;3.58;;;16.90;99.90;;;;;;4972942;28;20046;-68
2023/03/24 09:27:38;;;;;;;11.20;3.80;;;17.60;99.90;;;;;;4977307;28;20058;-68
2023/03/24 09:30:06;;;;;;;12.35;3.78;;;16.70;99.90;;;;;;4991184;28;20134;-64
2023/03/24 09:32:33;;;;;;;16.70;3.95;;;16.80;99.90;;;;;;4982128;28;20291;-64
2023/03/24 09:35:00;;;;;;;13.90;3.35;;;15.60;99.90;;;;;;4976406;28;21142;-64
2023/03/24 09:37:29;;;;;;;11.55;3.47;;;14.90;99.90;;;;;;4973762;28;20067;-65
2023/03/24 09:39:58;;;;;;;10.57;3.30;;;14.60;99.90;;;;;;4993131;28;20050;-65
2023/03/24 09:42:29;;;;;;;15.27;3.88;;;14.80;99.90;;;;;;4973712;28;20093;-65
2023/03/24 09:44:57;;;;;;;19.23;4.15;;;14.90;99.90;;;;;;4989773;28;20058;-65
2023/03/24 09:47:30;;;;;;;16.08;3.17;;;14.60;99.90;;;;;;4977686;28;20053;-65
2023/03/24 09:50:01;;;;;;;18.42;4.00;;;14.70;99.90;;;;;;4989835;28;20721;-64
2023/03/24 09:52:34;;;;;;;15.68;3.85;;;15.00;99.90;;;;;;4989893;28;20062;-65
2023/03/24 09:55:04;;;;;;;14.23;3.88;;;15.50;99.90;;;;;;4996822;28;20065;-65
2023/03/24 09:57:37;;;;;;;12.33;3.57;;;15.90;99.90;;;;;;4991328;28;20108;-65
2023/03/24 10:00:17;;;;;;;10.52;3.10;;;15.60;99.90;;;;;;4981579;28;20054;-63
2023/03/24 10:02:44;;;;;;;10.38;3.13;;;15.40;99.90;;;;;;4972980;28;20082;-65
2023/03/24 10:05:15;;;;;;;12.55;3.22;;;15.00;99.90;;;;;;4991512;28;20100;-65
2023/03/24 10:07:48;;;;;;;16.75;3.47;;;15.10;99.90;;;;;;4987331;28;20049;-64
2023/03/24 10:10:27;;;;;;;11.73;3.15;;;15.80;99.90;;;;;;4991873;28;20049;-64
2023/03/24 10:13:02;;;;;;;14.95;3.45;;;16.80;99.90;;;;;;4972829;28;20088;-63
2023/03/24 10:15:33;;;;;;;13.30;3.75;;;17.50;99.90;;;;;;4972485;28;20410;-64
2023/03/24 10:18:08;;;;;;;15.77;4.22;;;17.60;99.90;;;;;;4992045;28;20129;-64
2023/03/24 10:20:39;;;;;;;12.00;2.88;;;17.60;99.90;;;;;;4993854;28;20093;-64
2023/03/24 10:23:20;;;;;;;16.30;3.40;;;16.70;99.90;;;;;;4980589;28;20540;-64
2023/03/24 10:25:53;;;;;;;9.38;2.78;;;15.90;99.90;;;;;;4993360;28;20583;-66
2023/03/24 10:28:24;;;;;;;12.27;3.20;;;15.30;99.90;;;;;;4991656;28;20046;-65
2023/03/24 10:30:52;;;;;;;8.25;2.72;;;15.70;99.90;;;;;;4992240;28;20524;-64
2023/03/24 10:33:19;;;;;;;9.18;2.50;;;17.10;99.90;;;;;;4975665;28;20449;-65
2023/03/24 10:35:54;;;;;;;15.27;3.13;;;18.30;99.90;;;;;;4998424;28;20077;-66
2023/03/24 10:38:22;;;;;;;12.18;3.90;;;19.10;99.90;;;;;;5002046;28;20575;-65
2023/03/24 10:40:52;;;;;;;10.50;2.80;;;19.10;97.20;;;;;;4997588;28;20053;-65
2023/03/24 10:43:20;;;;;;;11.07;3.15;;;19.10;96.10;;;;;;4984946;28;20460;-65
2023/03/24 10:45:49;;;;;;;12.75;2.97;;;18.90;97.60;;;;;;4984103;28;20054;-65
2023/03/24 10:48:40;;;;;;;10.80;2.80;;;19.50;95.60;;;;;;4995979;28;20050;-65
2023/03/24 10:51:12;;;;;;;9.00;2.53;;;19.20;95.60;;;;;;4997920;28;20061;-65
2023/03/24 10:53:40;;;;;;;7.85;2.53;;;19.20;95.00;;;;;;4981895;28;20116;-65
2023/03/24 10:56:15;;;;;;;10.90;3.78;;;20.10;96.20;;;;;;4974031;28;20102;-65
2023/03/24 10:58:43;;;;;;;8.65;2.92;;;19.60;94.60;;;;;;4993662;28;20101;-66
2023/03/24 11:01:23;;;;;;;8.50;3.47;;;19.70;95.80;;;;;;4995535;28;20498;-65
2023/03/24 11:03:51;;;;;;;9.65;3.00;;;20.20;95.40;;;;;;4994573;28;20057;-66
2023/03/24 11:06:20;;;;;;;13.10;3.22;;;20.90;94.40;;;;;;4993247;28;20050;-65
2023/03/24 11:08:48;;;;;;;9.82;2.88;;;21.20;94.10;;;;;;4992592;28;20058;-66
2023/03/24 11:11:30;;;;;;;11.68;2.90;;;21.10;92.30;;;;;;4996176;28;20054;-65
2023/03/24 11:14:00;;;;;;;11.45;3.08;;;21.30;92.40;;;;;;4976024;28;20449;-65
2023/03/24 11:16:27;;;;;;;;;;;21.20;93.10;;;;;;4998458;28;20050;-65
2023/03/24 11:18:56;;;;;;;7.35;2.42;;;21.80;91.80;;;;;;4996335;28;19921;-64
2023/03/24 11:21:23;;;;;;;10.48;3.10;;;21.70;90.10;;;;;;4995529;28;20155;-65
2023/03/24 11:23:51;;;;;;;9.65;2.55;;;21.10;88.20;;;;;;4993613;28;20054;-64
2023/03/24 11:26:22;;;;;;;10.80;2.85;;;21.40;89.90;;;;;;4994612;28;20104;-65
2023/03/24 11:28:52;;;;;;;8.82;2.63;;;21.70;89.70;;;;;;4996724;28;20054;-64
2023/03/24 11:31:24;;;;;;;13.02;2.72;;;20.80;88.50;;;;;;4992531;28;20417;-64
2023/03/24 11:33:57;;;;;;;6.95;2.22;;;20.80;88.70;;;;;;4994339;28;20046;-65
2023/03/24 11:36:41;;;;;;;8.40;2.50;;;21.20;88.60;;;;;;4972276;28;20045;-66
2023/03/24 11:39:14;;;;;;;10.98;3.15;;;21.00;87.80;;;;;;4990574;28;20414;-66
2023/03/24 11:41:50;;;;;;;9.75;3.05;;;20.00;87.70;;;;;;4976047;28;20486;-66
2023/03/24 11:44:20;;;;;;;12.15;3.08;;;20.50;89.80;;;;;;5000492;28;20074;-65
2023/03/24 11:46:51;;;;;;;9.40;3.05;;;20.80;88.30;;;;;;4979373;28;20133;-66
2023/03/24 11:49:21;;;;;;;11.77;3.05;;;20.70;87.90;;;;;;4996358;28;20043;-66
2023/03/24 11:51:52;;;;;;;14.98;3.55;;;20.40;89.10;;;;;;4988456;28;20058;-65
2023/03/24 11:54:22;;;;;;;11.02;3.30;;;21.20;90.00;;;;;;4995251;28;20050;-66
2023/03/24 11:56:52;;;;;;;10.60;3.22;;;21.10;89.30;;;;;;4982689;28;20072;-66
2023/03/24 11:59:29;;;;;;;10.55;2.97;;;21.50;85.20;;;;;;4999609;28;20042;-66
2023/03/24 12:02:02;;;;;;;8.85;2.78;;;21.50;82.80;;;;;;4997217;28;20085;-66
2023/03/24 12:04:39;;;;;;;9.07;3.20;;;21.70;83.00;;;;;;4996501;28;20054;-66
2023/03/24 12:07:36;;;;;;;9.02;2.55;;;21.70;84.30;;;;;;4996530;28;20042;-67
2023/03/24 12:10:12;;;;;;;10.57;2.67;;;21.40;82.60;;;;;;4979532;28;20074;-66
2023/03/24 12:12:51;;;;;;;10.55;2.78;;;20.90;82.80;;;;;;4996593;28;20101;-66
2023/03/24 12:15:28;;;;;;;7.87;2.30;;;20.40;83.00;;;;;;4979941;28;20055;-65
2023/03/24 12:18:07;;;;;;;8.07;2.53;;;19.40;83.80;;;;;;4982645;28;20054;-65
2023/03/24 12:20:41;;;;;;;9.73;2.30;;;18.00;86.60;;;;;;4995951;28;20049;-66
2023/03/24 12:23:12;;;;;;;7.82;2.40;;;17.00;90.70;;;;;;4999669;28;20105;-65
2023/03/24 12:26:05;;;;;;;11.00;3.05;;;16.80;92.00;;;;;;4980819;28;20570;-66
2023/03/24 12:28:46;;;;;;;11.13;3.22;;;16.80;92.60;;;;;;4994295;28;20050;-66
2023/03/24 12:31:29;;;;;;;7.50;2.47;;;15.90;93.60;;;;;;4989745;28;20041;-66
2023/03/24 12:34:07;;;;;;;12.18;3.03;;;15.50;95.20;;;;;;4985025;28;20579;-65
2023/03/24 12:36:46;;;;;;;8.27;3.15;;;15.50;96.50;;;;;;4996476;28;20101;-65
2023/03/24 12:39:16;;;;;;;11.43;3.35;;;15.40;97.80;;;;;;4974207;28;20100;-65
2023/03/24 12:41:54;;;;;;;12.30;3.72;;;15.60;98.60;;;;;;4995525;28;20381;-66
2023/03/24 12:44:48;;;;;;;10.52;3.15;;;16.30;98.20;;;;;;4983628;28;20061;-65
2023/03/24 12:47:38;;;;;;;14.93;3.47;;;16.30;97.90;;;;;;4978572;28;20057;-65
2023/03/24 12:50:20;;;;;;;;;;;16.60;97.90;;;;;;4978493;28;20038;-66
2023/03/24 12:53:03;;;;;;;12.20;3.22;;;16.80;97.40;;;;;;4978766;28;19921;-66
2023/03/24 12:55:35;;;;;;;11.45;2.80;;;17.00;97.60;;;;;;4976772;28;20070;-64
2023/03/24 12:58:08;;;;;;;10.77;3.42;;;17.60;97.30;;;;;;4988893;28;20456;-65
2023/03/24 13:00:40;;;;;;;12.75;2.80;;;17.60;96.80;;;;;;4984225;28;20109;-65
2023/03/24 13:03:12;;;;;;;10.02;2.65;;;17.90;95.50;;;;;;4982541;28;20053;-65
2023/03/24 13:05:43;;;;;;;10.40;2.90;;;16.90;96.10;;;;;;4973056;28;20100;-65